sensor_id;sensor_type;location;lat;lon;timestamp;pressure;altitude;pressure_sealevel;temperature;humidity
4085;BME280;2057;50.858;6.572;2023-05-19T00:00:20;101264.09;;;11.85;80.26
4085;BME280;2057;50.858;6.572;2023-05-19T00:02:46;101254.38;;;11.78;81.08
4085;BME280;2057;50.858;6.572;2023-05-19T00:05:11;101261.81;;;11.75;80.63
4085;BME280;2057;50.858;6.572;2023-05-19T00:07:40;101253.41;;;11.76;81.93
4085;BME280;2057;50.858;6.572;2023-05-19T00:10:07;101260.69;;;11.70;81.38
4085;BME280;2057;50.858;6.572;2023-05-19T00:12:33;101258.94;;;11.69;81.43
4085;BME280;2057;50.858;6.572;2023-05-19T00:15:00;101260.50;;;11.67;81.25
4085;BME280;2057;50.858;6.572;2023-05-19T00:17:25;101261.56;;;11.55;81.90
4085;BME280;2057;50.858;6.572;2023-05-19T00:19:51;101262.53;;;11.57;82.24
4085;BME280;2057;50.858;6.572;2023-05-19T00:22:16;101256.38;;;11.54;81.92
4085;BME280;2057;50.858;6.572;2023-05-19T00:24:41;101259.19;;;11.43;81.32
4085;BME280;2057;50.858;6.572;2023-05-19T00:27:07;101261.81;;;11.30;81.49
4085;BME280;2057;50.858;6.572;2023-05-19T00:29:32;101250.50;;;11.25;82.68
4085;BME280;2057;50.858;6.572;2023-05-19T00:31:57;101249.16;;;11.32;83.41
4085;BME280;2057;50.858;6.572;2023-05-19T00:34:23;101260.03;;;11.29;82.70
4085;BME280;2057;50.858;6.572;2023-05-19T00:36:49;101264.59;;;11.20;82.35
4085;BME280;2057;50.858;6.572;2023-05-19T00:39:15;101257.31;;;11.11;82.61
4085;BME280;2057;50.858;6.572;2023-05-19T00:41:40;101260.56;;;11.08;83.03
4085;BME280;2057;50.858;6.572;2023-05-19T00:44:06;101259.66;;;11.08;83.01
4085;BME280;2057;50.858;6.572;2023-05-19T00:46:31;101258.59;;;11.04;82.94
4085;BME280;2057;50.858;6.572;2023-05-19T00:48:56;101263.69;;;11.04;82.62
4085;BME280;2057;50.858;6.572;2023-05-19T00:51:23;101262.13;;;11.06;83.11
4085;BME280;2057;50.858;6.572;2023-05-19T00:53:50;101262.31;;;11.09;84.21
4085;BME280;2057;50.858;6.572;2023-05-19T00:56:16;101258.41;;;11.01;84.30
4085;BME280;2057;50.858;6.572;2023-05-19T00:58:42;101264.56;;;11.05;85.01
4085;BME280;2057;50.858;6.572;2023-05-19T01:01:08;101256.75;;;11.02;85.44
4085;BME280;2057;50.858;6.572;2023-05-19T01:03:34;101258.31;;;10.99;85.40
4085;BME280;2057;50.858;6.572;2023-05-19T01:06:00;101252.81;;;10.92;85.58
4085;BME280;2057;50.858;6.572;2023-05-19T01:08:30;101258.38;;;10.86;85.27
4085;BME280;2057;50.858;6.572;2023-05-19T01:10:55;101251.72;;;10.88;85.54
4085;BME280;2057;50.858;6.572;2023-05-19T01:13:21;101249.88;;;10.86;84.90
4085;BME280;2057;50.858;6.572;2023-05-19T01:16:03;101251.97;;;10.78;84.76
4085;BME280;2057;50.858;6.572;2023-05-19T01:32:32;101238.88;;;10.72;85.53
4085;BME280;2057;50.858;6.572;2023-05-19T01:34:59;101239.56;;;10.69;86.32
4085;BME280;2057;50.858;6.572;2023-05-19T01:37:25;101237.38;;;10.60;86.34
4085;BME280;2057;50.858;6.572;2023-05-19T01:39:51;101230.53;;;10.46;85.78
4085;BME280;2057;50.858;6.572;2023-05-19T01:42:18;101232.88;;;10.56;85.75
4085;BME280;2057;50.858;6.572;2023-05-19T01:44:45;101234.44;;;10.54;85.26
4085;BME280;2057;50.858;6.572;2023-05-19T01:47:11;101234.34;;;10.52;85.43
4085;BME280;2057;50.858;6.572;2023-05-19T01:49:36;101231.31;;;10.58;85.10
4085;BME280;2057;50.858;6.572;2023-05-19T01:52:02;101235.13;;;10.51;84.83
4085;BME280;2057;50.858;6.572;2023-05-19T01:54:27;101233.69;;;10.42;85.89
4085;BME280;2057;50.858;6.572;2023-05-19T01:57:05;101228.41;;;10.39;86.83
4085;BME280;2057;50.858;6.572;2023-05-19T02:02:25;101243.56;;;10.37;87.08
4085;BME280;2057;50.858;6.572;2023-05-19T02:04:57;101241.28;;;10.28;87.63
4085;BME280;2057;50.858;6.572;2023-05-19T02:07:40;101243.16;;;10.17;87.80
4085;BME280;2057;50.858;6.572;2023-05-19T02:10:16;101245.00;;;10.20;88.07
4085;BME280;2057;50.858;6.572;2023-05-19T02:12:44;101243.16;;;10.17;87.92
4085;BME280;2057;50.858;6.572;2023-05-19T02:15:14;101241.88;;;10.11;88.34
4085;BME280;2057;50.858;6.572;2023-05-19T02:17:43;101246.38;;;10.15;88.22
4085;BME280;2057;50.858;6.572;2023-05-19T02:20:13;101240.16;;;10.10;87.87
4085;BME280;2057;50.858;6.572;2023-05-19T02:22:39;101239.16;;;10.08;88.21
4085;BME280;2057;50.858;6.572;2023-05-19T02:25:05;101237.97;;;10.02;88.65
4085;BME280;2057;50.858;6.572;2023-05-19T02:27:30;101236.06;;;9.98;88.49
4085;BME280;2057;50.858;6.572;2023-05-19T02:29:56;101240.72;;;10.05;88.66
4085;BME280;2057;50.858;6.572;2023-05-19T02:32:21;101239.66;;;10.02;88.26
4085;BME280;2057;50.858;6.572;2023-05-19T02:34:47;101234.50;;;10.00;88.12
4085;BME280;2057;50.858;6.572;2023-05-19T02:37:15;101236.13;;;10.00;88.36
4085;BME280;2057;50.858;6.572;2023-05-19T02:39:42;101234.78;;;9.92;88.80
4085;BME280;2057;50.858;6.572;2023-05-19T02:42:07;101226.28;;;9.91;89.84
4085;BME280;2057;50.858;6.572;2023-05-19T02:44:33;101227.75;;;9.87;89.42
4085;BME280;2057;50.858;6.572;2023-05-19T02:46:58;101222.56;;;9.86;89.77
4085;BME280;2057;50.858;6.572;2023-05-19T02:49:23;101216.25;;;9.79;90.45
4085;BME280;2057;50.858;6.572;2023-05-19T02:51:49;101219.44;;;9.77;90.48
4085;BME280;2057;50.858;6.572;2023-05-19T02:54:14;101218.97;;;9.69;90.52
4085;BME280;2057;50.858;6.572;2023-05-19T02:56:39;101219.06;;;9.70;90.78
4085;BME280;2057;50.858;6.572;2023-05-19T02:59:05;101219.44;;;9.77;90.83
4085;BME280;2057;50.858;6.572;2023-05-19T03:01:30;101212.06;;;9.66;91.29
4085;BME280;2057;50.858;6.572;2023-05-19T03:03:57;101214.78;;;9.56;91.44
4085;BME280;2057;50.858;6.572;2023-05-19T03:06:22;101208.41;;;9.63;91.32
4085;BME280;2057;50.858;6.572;2023-05-19T03:08:48;101213.41;;;9.61;91.94
4085;BME280;2057;50.858;6.572;2023-05-19T03:11:14;101213.78;;;9.67;92.26
4085;BME280;2057;50.858;6.572;2023-05-19T03:13:40;101219.84;;;9.69;92.34
4085;BME280;2057;50.858;6.572;2023-05-19T03:16:05;101227.44;;;9.69;92.02
4085;BME280;2057;50.858;6.572;2023-05-19T03:18:32;101225.28;;;9.62;92.83
4085;BME280;2057;50.858;6.572;2023-05-19T03:20:57;101225.59;;;9.53;93.23
4085;BME280;2057;50.858;6.572;2023-05-19T03:23:25;101223.31;;;9.45;93.56
4085;BME280;2057;50.858;6.572;2023-05-19T03:25:51;101232.91;;;9.49;93.97
4085;BME280;2057;50.858;6.572;2023-05-19T03:28:20;101230.91;;;9.45;93.07
4085;BME280;2057;50.858;6.572;2023-05-19T03:30:47;101232.28;;;9.39;92.19
4085;BME280;2057;50.858;6.572;2023-05-19T03:33:15;101224.69;;;9.39;92.00
4085;BME280;2057;50.858;6.572;2023-05-19T03:35:40;101226.72;;;9.45;91.53
4085;BME280;2057;50.858;6.572;2023-05-19T03:38:05;101226.72;;;9.45;91.40
4085;BME280;2057;50.858;6.572;2023-05-19T03:40:31;101225.25;;;9.35;91.76
4085;BME280;2057;50.858;6.572;2023-05-19T03:42:56;101230.06;;;9.44;91.77
4085;BME280;2057;50.858;6.572;2023-05-19T03:45:21;101218.25;;;9.45;91.15
4085;BME280;2057;50.858;6.572;2023-05-19T03:47:47;101220.69;;;9.43;90.93
4085;BME280;2057;50.858;6.572;2023-05-19T03:50:12;101231.75;;;9.18;92.35
4085;BME280;2057;50.858;6.572;2023-05-19T03:52:38;101229.03;;;9.29;92.07
4085;BME280;2057;50.858;6.572;2023-05-19T03:55:04;101227.84;;;9.23;92.48
4085;BME280;2057;50.858;6.572;2023-05-19T03:57:30;101221.94;;;9.23;93.18
4085;BME280;2057;50.858;6.572;2023-05-19T03:59:55;101220.94;;;9.21;93.92
4085;BME280;2057;50.858;6.572;2023-05-19T04:02:20;101221.34;;;9.27;94.10
4085;BME280;2057;50.858;6.572;2023-05-19T04:04:45;101225.03;;;9.32;94.22
4085;BME280;2057;50.858;6.572;2023-05-19T04:07:11;101221.06;;;9.36;94.57
4085;BME280;2057;50.858;6.572;2023-05-19T04:09:36;101228.47;;;9.33;94.29
4085;BME280;2057;50.858;6.572;2023-05-19T04:12:02;101225.22;;;9.22;95.35
4085;BME280;2057;50.858;6.572;2023-05-19T04:14:27;101221.50;;;9.17;95.70
4085;BME280;2057;50.858;6.572;2023-05-19T04:16:53;101222.94;;;9.13;95.80
4085;BME280;2057;50.858;6.572;2023-05-19T04:19:19;101232.91;;;9.10;96.23
4085;BME280;2057;50.858;6.572;2023-05-19T04:21:44;101230.66;;;9.15;97.05
4085;BME280;2057;50.858;6.572;2023-05-19T04:24:09;101230.66;;;9.15;96.28
4085;BME280;2057;50.858;6.572;2023-05-19T04:26:35;101239.22;;;9.17;96.37
4085;BME280;2057;50.858;6.572;2023-05-19T04:29:02;101233.22;;;9.28;95.08
4085;BME280;2057;50.858;6.572;2023-05-19T04:31:28;101233.75;;;9.10;96.22
4085;BME280;2057;50.858;6.572;2023-05-19T04:33:54;101236.41;;;8.87;98.97
4085;BME280;2057;50.858;6.572;2023-05-19T04:36:19;101242.53;;;8.90;98.67
4085;BME280;2057;50.858;6.572;2023-05-19T04:38:46;101243.16;;;8.74;99.78
4085;BME280;2057;50.858;6.572;2023-05-19T04:41:11;101244.91;;;8.75;100.00
4085;BME280;2057;50.858;6.572;2023-05-19T04:43:37;101236.53;;;8.76;99.96
4085;BME280;2057;50.858;6.572;2023-05-19T04:46:11;101247.72;;;8.92;99.97
4085;BME280;2057;50.858;6.572;2023-05-19T04:48:37;101247.03;;;8.94;99.91
4085;BME280;2057;50.858;6.572;2023-05-19T04:51:02;101252.41;;;8.99;99.51
4085;BME280;2057;50.858;6.572;2023-05-19T04:53:28;101242.97;;;9.22;100.00
4085;BME280;2057;50.858;6.572;2023-05-19T04:55:54;101247.97;;;9.34;98.34
4085;BME280;2057;50.858;6.572;2023-05-19T04:58:21;101237.75;;;9.46;97.13
4085;BME280;2057;50.858;6.572;2023-05-19T05:00:46;101242.22;;;9.50;95.35
4085;BME280;2057;50.858;6.572;2023-05-19T05:03:11;101239.91;;;9.53;94.93
4085;BME280;2057;50.858;6.572;2023-05-19T05:05:38;101234.84;;;9.53;93.93
4085;BME280;2057;50.858;6.572;2023-05-19T05:08:04;101241.28;;;9.48;95.61
4085;BME280;2057;50.858;6.572;2023-05-19T05:10:29;101237.53;;;9.42;96.10
4085;BME280;2057;50.858;6.572;2023-05-19T05:12:55;101237.75;;;9.46;96.45
4085;BME280;2057;50.858;6.572;2023-05-19T05:15:20;101240.00;;;9.54;98.29
4085;BME280;2057;50.858;6.572;2023-05-19T05:17:46;101246.25;;;9.60;99.51
4085;BME280;2057;50.858;6.572;2023-05-19T05:20:12;101244.13;;;9.66;97.47
4085;BME280;2057;50.858;6.572;2023-05-19T05:22:38;101246.25;;;9.60;96.54
4085;BME280;2057;50.858;6.572;2023-05-19T05:25:04;101246.44;;;9.63;95.76
4085;BME280;2057;50.858;6.572;2023-05-19T05:27:30;101236.22;;;9.61;97.74
4085;BME280;2057;50.858;6.572;2023-05-19T05:29:56;101237.19;;;9.77;95.34
4085;BME280;2057;50.858;6.572;2023-05-19T05:32:21;101240.31;;;9.86;95.83
4085;BME280;2057;50.858;6.572;2023-05-19T05:34:47;101233.69;;;9.88;95.16
4085;BME280;2057;50.858;6.572;2023-05-19T05:37:13;101242.88;;;9.86;95.52
4085;BME280;2057;50.858;6.572;2023-05-19T05:39:39;101236.63;;;9.94;96.14
4085;BME280;2057;50.858;6.572;2023-05-19T05:42:04;101234.28;;;9.97;95.98
4085;BME280;2057;50.858;6.572;2023-05-19T05:44:30;101229.81;;;10.07;95.27
4085;BME280;2057;50.858;6.572;2023-05-19T05:46:55;101231.66;;;10.09;94.56
4085;BME280;2057;50.858;6.572;2023-05-19T05:49:21;101229.00;;;10.21;95.22
4085;BME280;2057;50.858;6.572;2023-05-19T05:51:47;101221.97;;;10.30;94.82
4085;BME280;2057;50.858;6.572;2023-05-19T05:54:14;101225.47;;;10.32;95.52
4085;BME280;2057;50.858;6.572;2023-05-19T05:56:41;101226.06;;;10.28;96.85
4085;BME280;2057;50.858;6.572;2023-05-19T05:59:06;101234.72;;;10.32;96.67
4085;BME280;2057;50.858;6.572;2023-05-19T06:01:32;101227.56;;;10.38;97.43
4085;BME280;2057;50.858;6.572;2023-05-19T06:03:59;101229.78;;;10.33;95.20
4085;BME280;2057;50.858;6.572;2023-05-19T06:06:25;101228.00;;;10.46;94.76
4085;BME280;2057;50.858;6.572;2023-05-19T06:08:50;101225.09;;;10.40;93.39
4085;BME280;2057;50.858;6.572;2023-05-19T06:11:15;101230.38;;;10.43;93.05
4085;BME280;2057;50.858;6.572;2023-05-19T06:13:41;101233.66;;;10.55;92.40
4085;BME280;2057;50.858;6.572;2023-05-19T06:16:06;101229.19;;;10.51;90.40
4085;BME280;2057;50.858;6.572;2023-05-19T06:18:32;101224.84;;;10.63;91.08
4085;BME280;2057;50.858;6.572;2023-05-19T06:20:57;101217.63;;;10.85;90.65
4085;BME280;2057;50.858;6.572;2023-05-19T06:23:23;101223.13;;;10.77;90.56
4085;BME280;2057;50.858;6.572;2023-05-19T06:25:50;101224.19;;;10.81;90.54
4085;BME280;2057;50.858;6.572;2023-05-19T06:28:16;101232.19;;;10.87;91.83
4085;BME280;2057;50.858;6.572;2023-05-19T06:30:41;101218.84;;;11.05;90.55
4085;BME280;2057;50.858;6.572;2023-05-19T06:33:06;101226.63;;;11.08;90.50
4085;BME280;2057;50.858;6.572;2023-05-19T06:35:32;101223.06;;;11.19;89.40
4085;BME280;2057;50.858;6.572;2023-05-19T06:37:57;101223.06;;;11.19;89.91
4085;BME280;2057;50.858;6.572;2023-05-19T06:40:23;101224.88;;;11.22;88.96
4085;BME280;2057;50.858;6.572;2023-05-19T06:42:48;101220.84;;;11.25;89.08
4085;BME280;2057;50.858;6.572;2023-05-19T06:45:14;101225.94;;;11.25;89.36
4085;BME280;2057;50.858;6.572;2023-05-19T06:47:39;101228.31;;;11.22;88.71
4085;BME280;2057;50.858;6.572;2023-05-19T06:50:08;101229.38;;;11.41;87.81
4085;BME280;2057;50.858;6.572;2023-05-19T06:52:34;101226.03;;;11.42;86.71
4085;BME280;2057;50.858;6.572;2023-05-19T06:55:00;101232.44;;;11.50;85.43
4085;BME280;2057;50.858;6.572;2023-05-19T06:57:26;101233.84;;;11.60;85.87
4085;BME280;2057;50.858;6.572;2023-05-19T06:59:51;101229.38;;;11.71;85.87
4085;BME280;2057;50.858;6.572;2023-05-19T07:02:16;101227.44;;;11.67;85.44
4085;BME280;2057;50.858;6.572;2023-05-19T07:04:42;101232.00;;;11.72;85.56
4085;BME280;2057;50.858;6.572;2023-05-19T07:07:07;101231.00;;;11.85;85.63
4085;BME280;2057;50.858;6.572;2023-05-19T07:09:33;101232.50;;;11.97;84.54
4085;BME280;2057;50.858;6.572;2023-05-19T07:11:58;101229.59;;;12.05;83.99
4085;BME280;2057;50.858;6.572;2023-05-19T07:14:24;101228.13;;;11.94;84.05
4085;BME280;2057;50.858;6.572;2023-05-19T07:16:49;101235.31;;;12.16;83.91
4085;BME280;2057;50.858;6.572;2023-05-19T07:19:14;101230.09;;;12.15;82.85
4085;BME280;2057;50.858;6.572;2023-05-19T07:21:40;101239.28;;;12.28;82.91
4085;BME280;2057;50.858;6.572;2023-05-19T07:24:06;101236.31;;;12.35;81.55
4085;BME280;2057;50.858;6.572;2023-05-19T07:26:31;101232.63;;;12.30;82.19
4085;BME280;2057;50.858;6.572;2023-05-19T07:28:57;101232.78;;;12.33;81.32
4085;BME280;2057;50.858;6.572;2023-05-19T07:31:22;101231.91;;;12.32;79.61
4085;BME280;2057;50.858;6.572;2023-05-19T07:33:47;101229.78;;;12.40;80.30
4085;BME280;2057;50.858;6.572;2023-05-19T07:36:13;101235.13;;;12.61;79.40
4085;BME280;2057;50.858;6.572;2023-05-19T07:38:38;101231.06;;;12.65;79.44
4085;BME280;2057;50.858;6.572;2023-05-19T07:41:04;101232.03;;;12.67;78.26
4085;BME280;2057;50.858;6.572;2023-05-19T07:43:29;101230.75;;;12.75;78.42
4085;BME280;2057;50.858;6.572;2023-05-19T07:45:55;101229.66;;;12.70;79.09
4085;BME280;2057;50.858;6.572;2023-05-19T07:48:21;101230.75;;;12.92;78.91
4085;BME280;2057;50.858;6.572;2023-05-19T07:50:51;101225.59;;;12.90;77.39
4085;BME280;2057;50.858;6.572;2023-05-19T07:53:17;101227.25;;;12.90;76.97
4085;BME280;2057;50.858;6.572;2023-05-19T07:55:43;101211.41;;;12.95;78.64
4085;BME280;2057;50.858;6.572;2023-05-19T07:58:08;101219.91;;;13.12;76.90
4085;BME280;2057;50.858;6.572;2023-05-19T08:00:34;101211.78;;;13.20;78.11
4085;BME280;2057;50.858;6.572;2023-05-19T08:02:59;101204.56;;;13.45;77.53
4085;BME280;2057;50.858;6.572;2023-05-19T08:05:25;101203.66;;;13.45;77.35
4085;BME280;2057;50.858;6.572;2023-05-19T08:07:51;101207.97;;;13.46;78.57
4085;BME280;2057;50.858;6.572;2023-05-19T08:10:16;101201.88;;;13.60;77.55
4085;BME280;2057;50.858;6.572;2023-05-19T08:12:42;101205.88;;;13.55;76.04
4085;BME280;2057;50.858;6.572;2023-05-19T08:15:08;101205.81;;;13.54;76.35
4085;BME280;2057;50.858;6.572;2023-05-19T08:17:36;101206.09;;;13.60;77.99
4085;BME280;2057;50.858;6.572;2023-05-19T08:20:01;101209.81;;;13.67;76.87
4085;BME280;2057;50.858;6.572;2023-05-19T08:22:29;101200.03;;;13.58;74.90
4085;BME280;2057;50.858;6.572;2023-05-19T08:24:54;101210.06;;;13.71;76.48
4085;BME280;2057;50.858;6.572;2023-05-19T08:27:19;101203.78;;;13.46;74.50
4085;BME280;2057;50.858;6.572;2023-05-19T08:29:45;101194.88;;;13.56;73.96
4085;BME280;2057;50.858;6.572;2023-05-19T08:32:10;101199.63;;;14.03;74.06
4085;BME280;2057;50.858;6.572;2023-05-19T08:34:35;101195.53;;;13.88;72.65
4085;BME280;2057;50.858;6.572;2023-05-19T08:37:01;101187.75;;;14.23;73.34
4085;BME280;2057;50.858;6.572;2023-05-19T08:39:27;101194.13;;;14.33;72.50
4085;BME280;2057;50.858;6.572;2023-05-19T08:41:53;101191.47;;;14.49;72.73
4085;BME280;2057;50.858;6.572;2023-05-19T08:44:18;101192.88;;;14.62;71.20
4085;BME280;2057;50.858;6.572;2023-05-19T08:46:44;101183.22;;;14.74;70.68
4085;BME280;2057;50.858;6.572;2023-05-19T08:49:12;101178.78;;;14.90;66.97
4085;BME280;2057;50.858;6.572;2023-05-19T08:54:24;101179.03;;;14.96;61.96
4085;BME280;2057;50.858;6.572;2023-05-19T08:56:54;101182.19;;;14.69;61.86
4085;BME280;2057;50.858;6.572;2023-05-19T08:59:20;101179.03;;;14.96;65.61
4085;BME280;2057;50.858;6.572;2023-05-19T09:01:46;101178.97;;;14.75;64.41
4085;BME280;2057;50.858;6.572;2023-05-19T09:04:13;101174.94;;;14.61;65.73
4085;BME280;2057;50.858;6.572;2023-05-19T09:06:42;101169.16;;;14.84;66.27
4085;BME280;2057;50.858;6.572;2023-05-19T09:09:09;101169.25;;;15.07;65.72
4085;BME280;2057;50.858;6.572;2023-05-19T09:11:35;101170.78;;;14.82;65.62
4085;BME280;2057;50.858;6.572;2023-05-19T09:14:02;101161.78;;;15.12;67.54
4085;BME280;2057;50.858;6.572;2023-05-19T09:16:28;101166.72;;;15.28;66.64
4085;BME280;2057;50.858;6.572;2023-05-19T09:18:54;101156.53;;;15.30;66.67
4085;BME280;2057;50.858;6.572;2023-05-19T09:21:28;101158.81;;;15.66;65.32
4085;BME280;2057;50.858;6.572;2023-05-19T09:23:58;101156.66;;;15.77;62.69
4085;BME280;2057;50.858;6.572;2023-05-19T09:26:41;101153.81;;;15.69;62.05
4085;BME280;2057;50.858;6.572;2023-05-19T09:29:16;101154.44;;;15.84;62.89
4085;BME280;2057;50.858;6.572;2023-05-19T09:31:52;101154.16;;;15.99;61.84
4085;BME280;2057;50.858;6.572;2023-05-19T09:34:20;101145.13;;;15.87;60.88
4085;BME280;2057;50.858;6.572;2023-05-19T09:36:47;101149.53;;;16.13;60.37
4085;BME280;2057;50.858;6.572;2023-05-19T09:39:20;101149.13;;;16.25;60.36
4085;BME280;2057;50.858;6.572;2023-05-19T09:41:46;101146.78;;;16.31;59.73
4085;BME280;2057;50.858;6.572;2023-05-19T09:44:25;101129.41;;;16.49;57.62
4085;BME280;2057;50.858;6.572;2023-05-19T09:46:55;101134.09;;;16.60;58.60
4085;BME280;2057;50.858;6.572;2023-05-19T09:49:22;101126.47;;;16.62;59.14
4085;BME280;2057;50.858;6.572;2023-05-19T09:51:55;101136.06;;;16.68;54.87
4085;BME280;2057;50.858;6.572;2023-05-19T09:54:21;101132.09;;;16.76;55.35
4085;BME280;2057;50.858;6.572;2023-05-19T09:57:10;101131.34;;;17.04;55.21
4085;BME280;2057;50.858;6.572;2023-05-19T09:59:37;101128.25;;;17.15;55.33
4085;BME280;2057;50.858;6.572;2023-05-19T10:02:03;101137.56;;;17.11;55.03
4085;BME280;2057;50.858;6.572;2023-05-19T10:04:29;101116.44;;;17.20;53.69
4085;BME280;2057;50.858;6.572;2023-05-19T10:06:56;101122.94;;;17.36;52.71
4085;BME280;2057;50.858;6.572;2023-05-19T10:09:26;101116.91;;;17.35;51.47
4085;BME280;2057;50.858;6.572;2023-05-19T10:11:56;101115.81;;;17.27;53.36
4085;BME280;2057;50.858;6.572;2023-05-19T10:14:27;101120.13;;;17.55;54.46
4085;BME280;2057;50.858;6.572;2023-05-19T10:16:54;101121.75;;;17.53;55.07
4085;BME280;2057;50.858;6.572;2023-05-19T10:19:22;101124.63;;;17.35;56.46
4085;BME280;2057;50.858;6.572;2023-05-19T10:21:48;101120.72;;;17.48;52.40
4085;BME280;2057;50.858;6.572;2023-05-19T10:24:14;101119.06;;;17.49;51.65
4085;BME280;2057;50.858;6.572;2023-05-19T10:26:45;101117.59;;;17.57;52.36
4085;BME280;2057;50.858;6.572;2023-05-19T10:29:15;101114.63;;;17.72;52.42
4085;BME280;2057;50.858;6.572;2023-05-19T10:31:42;101115.88;;;17.86;51.19
4085;BME280;2057;50.858;6.572;2023-05-19T10:37:30;101109.41;;;17.98;52.57
4085;BME280;2057;50.858;6.572;2023-05-19T10:39:43;101113.19;;;18.11;52.98
4085;BME280;2057;50.858;6.572;2023-05-19T10:42:26;101104.03;;;18.21;52.01
4085;BME280;2057;50.858;6.572;2023-05-19T10:47:25;101102.13;;;18.45;50.80
4085;BME280;2057;50.858;6.572;2023-05-19T10:49:53;101099.13;;;18.62;54.43
4085;BME280;2057;50.858;6.572;2023-05-19T10:52:20;101099.69;;;18.85;51.44
4085;BME280;2057;50.858;6.572;2023-05-19T10:54:47;101096.88;;;18.74;51.21
4085;BME280;2057;50.858;6.572;2023-05-19T10:57:16;101097.53;;;19.01;51.70
4085;BME280;2057;50.858;6.572;2023-05-19T10:59:42;101093.38;;;18.72;49.48
4085;BME280;2057;50.858;6.572;2023-05-19T11:02:42;101090.06;;;18.76;49.38
4085;BME280;2057;50.858;6.572;2023-05-19T11:05:10;101082.16;;;19.04;48.84
4085;BME280;2057;50.858;6.572;2023-05-19T11:07:53;101085.94;;;19.18;50.72
4085;BME280;2057;50.858;6.572;2023-05-19T11:10:22;101085.66;;;19.44;49.75
4085;BME280;2057;50.858;6.572;2023-05-19T11:12:48;101078.78;;;19.84;50.07
4085;BME280;2057;50.858;6.572;2023-05-19T11:15:15;101090.78;;;19.84;48.32
4085;BME280;2057;50.858;6.572;2023-05-19T11:17:41;101080.69;;;19.52;48.60
4085;BME280;2057;50.858;6.572;2023-05-19T11:25:46;101076.69;;;19.66;48.38
4085;BME280;2057;50.858;6.572;2023-05-19T11:28:15;101071.97;;;19.86;48.53
4085;BME280;2057;50.858;6.572;2023-05-19T11:30:42;101077.66;;;19.71;47.92
4085;BME280;2057;50.858;6.572;2023-05-19T11:33:08;101076.78;;;19.71;47.92
4085;BME280;2057;50.858;6.572;2023-05-19T11:35:34;101068.47;;;19.84;47.06
4085;BME280;2057;50.858;6.572;2023-05-19T11:38:01;101068.19;;;19.70;46.24
4085;BME280;2057;50.858;6.572;2023-05-19T11:40:28;101060.66;;;19.80;47.73
4085;BME280;2057;50.858;6.572;2023-05-19T11:42:53;101062.78;;;19.99;47.50
4085;BME280;2057;50.858;6.572;2023-05-19T11:45:25;101061.53;;;19.82;45.16
4085;BME280;2057;50.858;6.572;2023-05-19T11:47:50;101060.88;;;19.49;46.75
4085;BME280;2057;50.858;6.572;2023-05-19T11:50:16;101060.19;;;19.58;45.77
4085;BME280;2057;50.858;6.572;2023-05-19T11:52:45;101055.19;;;20.05;47.35
4085;BME280;2057;50.858;6.572;2023-05-19T11:55:18;101048.25;;;20.52;47.54
4085;BME280;2057;50.858;6.572;2023-05-19T11:58:00;101049.25;;;20.60;46.42
4085;BME280;2057;50.858;6.572;2023-05-19T12:00:29;101048.47;;;20.64;47.07
4085;BME280;2057;50.858;6.572;2023-05-19T12:02:57;101052.97;;;20.27;45.89
4085;BME280;2057;50.858;6.572;2023-05-19T12:05:24;101039.34;;;20.33;45.23
4085;BME280;2057;50.858;6.572;2023-05-19T12:07:50;101041.16;;;20.38;45.30
4085;BME280;2057;50.858;6.572;2023-05-19T12:10:26;101032.50;;;20.36;46.18
4085;BME280;2057;50.858;6.572;2023-05-19T12:12:53;101028.41;;;20.48;45.00
4085;BME280;2057;50.858;6.572;2023-05-19T12:15:23;101020.16;;;20.69;46.35
4085;BME280;2057;50.858;6.572;2023-05-19T12:17:59;101026.50;;;20.88;44.92
4085;BME280;2057;50.858;6.572;2023-05-19T12:20:26;101028.00;;;20.74;45.32
4085;BME280;2057;50.858;6.572;2023-05-19T12:22:54;101023.50;;;20.62;45.15
4085;BME280;2057;50.858;6.572;2023-05-19T12:25:20;101013.84;;;20.50;44.77
4085;BME280;2057;50.858;6.572;2023-05-19T12:27:45;101015.47;;;20.46;44.71
4085;BME280;2057;50.858;6.572;2023-05-19T12:30:13;101006.94;;;20.49;45.08
4085;BME280;2057;50.858;6.572;2023-05-19T12:32:39;101005.81;;;20.33;45.64
4085;BME280;2057;50.858;6.572;2023-05-19T12:35:05;101005.81;;;20.85;46.62
4085;BME280;2057;50.858;6.572;2023-05-19T12:37:31;100998.69;;;20.72;45.74
4085;BME280;2057;50.858;6.572;2023-05-19T12:39:58;100997.22;;;20.86;45.03
4085;BME280;2057;50.858;6.572;2023-05-19T12:42:26;101007.00;;;21.09;44.58
4085;BME280;2057;50.858;6.572;2023-05-19T12:45:01;100992.84;;;20.80;44.57
4085;BME280;2057;50.858;6.572;2023-05-19T12:47:32;101001.78;;;21.04;44.16
4085;BME280;2057;50.858;6.572;2023-05-19T12:50:02;100990.75;;;21.14;44.65
4085;BME280;2057;50.858;6.572;2023-05-19T12:52:29;100988.75;;;20.96;43.96
4085;BME280;2057;50.858;6.572;2023-05-19T12:57:35;100992.34;;;20.51;44.51
4085;BME280;2057;50.858;6.572;2023-05-19T13:00:02;100995.16;;;21.25;44.41
4085;BME280;2057;50.858;6.572;2023-05-19T13:02:29;100976.22;;;21.23;44.33
4085;BME280;2057;50.858;6.572;2023-05-19T13:04:54;100979.75;;;21.31;43.47
4085;BME280;2057;50.858;6.572;2023-05-19T13:07:20;100983.38;;;20.82;43.33
4085;BME280;2057;50.858;6.572;2023-05-19T13:09:45;100978.84;;;21.27;42.48
4085;BME280;2057;50.858;6.572;2023-05-19T13:12:10;100979.41;;;21.71;42.03
4085;BME280;2057;50.858;6.572;2023-05-19T13:14:36;100978.91;;;22.09;43.13
4085;BME280;2057;50.858;6.572;2023-05-19T13:17:01;100969.16;;;21.83;42.41
4085;BME280;2057;50.858;6.572;2023-05-19T13:19:27;100972.38;;;22.51;41.22
4085;BME280;2057;50.858;6.572;2023-05-19T13:21:53;100971.81;;;22.94;41.03
4085;BME280;2057;50.858;6.572;2023-05-19T13:24:18;100974.31;;;22.82;41.53
4085;BME280;2057;50.858;6.572;2023-05-19T13:26:43;100966.78;;;22.02;41.32
4085;BME280;2057;50.858;6.572;2023-05-19T13:29:09;100960.31;;;21.58;42.27
4085;BME280;2057;50.858;6.572;2023-05-19T13:31:36;100962.53;;;21.31;41.89
4085;BME280;2057;50.858;6.572;2023-05-19T13:34:01;100958.50;;;21.55;42.18
4085;BME280;2057;50.858;6.572;2023-05-19T13:36:26;100962.81;;;22.39;42.68
4085;BME280;2057;50.858;6.572;2023-05-19T13:38:52;100949.41;;;23.04;41.19
4085;BME280;2057;50.858;6.572;2023-05-19T13:41:27;100958.63;;;22.55;41.61
4085;BME280;2057;50.858;6.572;2023-05-19T13:43:56;100953.38;;;22.46;42.40